sensor_id;sensor_type;location;lat;lon;timestamp;temperature;humidity
3900;DHT22;1965;47.668;9.180;2022-07-05T00:02:21;18.20;99.90
3900;DHT22;1965;47.668;9.180;2022-07-05T00:04:46;18.20;99.90
3900;DHT22;1965;47.668;9.180;2022-07-05T00:07:12;18.30;99.90
3900;DHT22;1965;47.668;9.180;2022-07-05T00:09:45;18.40;99.90
3900;DHT22;1965;47.668;9.180;2022-07-05T00:12:11;18.40;99.90
3900;DHT22;1965;47.668;9.180;2022-07-05T00:14:38;18.50;99.90
3900;DHT22;1965;47.668;9.180;2022-07-05T00:17:04;18.50;99.90
3900;DHT22;1965;47.668;9.180;2022-07-05T00:19:30;18.60;99.90
3900;DHT22;1965;47.668;9.180;2022-07-05T00:21:55;18.60;99.90
3900;DHT22;1965;47.668;9.180;2022-07-05T00:24:21;18.60;99.90
3900;DHT22;1965;47.668;9.180;2022-07-05T00:26:46;18.60;99.90
3900;DHT22;1965;47.668;9.180;2022-07-05T00:29:12;18.60;99.90
3900;DHT22;1965;47.668;9.180;2022-07-05T00:31:38;18.60;99.90
3900;DHT22;1965;47.668;9.180;2022-07-05T00:34:03;18.50;99.90
3900;DHT22;1965;47.668;9.180;2022-07-05T00:36:29;18.50;99.90
3900;DHT22;1965;47.668;9.180;2022-07-05T00:38:54;18.40;99.90
3900;DHT22;1965;47.668;9.180;2022-07-05T00:41:20;18.20;99.90
3900;DHT22;1965;47.668;9.180;2022-07-05T00:43:52;18.20;99.90
3900;DHT22;1965;47.668;9.180;2022-07-05T00:46:18;18.20;99.90
3900;DHT22;1965;47.668;9.180;2022-07-05T00:48:43;18.20;99.90
3900;DHT22;1965;47.668;9.180;2022-07-05T00:51:09;18.20;99.90
3900;DHT22;1965;47.668;9.180;2022-07-05T00:53:35;18.20;99.90
3900;DHT22;1965;47.668;9.180;2022-07-05T00:56:01;18.30;99.90
3900;DHT22;1965;47.668;9.180;2022-07-05T00:58:26;18.10;99.90
3900;DHT22;1965;47.668;9.180;2022-07-05T01:00:52;18.10;99.90
3900;DHT22;1965;47.668;9.180;2022-07-05T01:03:18;18.00;99.90
3900;DHT22;1965;47.668;9.180;2022-07-05T01:05:43;18.00;99.90
3900;DHT22;1965;47.668;9.180;2022-07-05T01:08:09;18.00;99.90
3900;DHT22;1965;47.668;9.180;2022-07-05T01:10:35;18.00;99.90
3900;DHT22;1965;47.668;9.180;2022-07-05T01:13:01;18.00;99.90
3900;DHT22;1965;47.668;9.180;2022-07-05T01:15:27;18.00;99.90
3900;DHT22;1965;47.668;9.180;2022-07-05T01:17:53;17.90;99.90
3900;DHT22;1965;47.668;9.180;2022-07-05T01:20:18;18.00;99.90
3900;DHT22;1965;47.668;9.180;2022-07-05T01:22:53;18.00;99.90
3900;DHT22;1965;47.668;9.180;2022-07-05T01:25:19;17.90;99.90
3900;DHT22;1965;47.668;9.180;2022-07-05T01:27:46;17.80;99.90
3900;DHT22;1965;47.668;9.180;2022-07-05T01:30:11;17.90;99.90
3900;DHT22;1965;47.668;9.180;2022-07-05T01:32:37;17.80;99.90
3900;DHT22;1965;47.668;9.180;2022-07-05T01:35:03;17.70;99.90
3900;DHT22;1965;47.668;9.180;2022-07-05T01:37:28;17.70;99.90
3900;DHT22;1965;47.668;9.180;2022-07-05T01:39:54;17.70;99.90
3900;DHT22;1965;47.668;9.180;2022-07-05T01:42:20;17.80;99.90
3900;DHT22;1965;47.668;9.180;2022-07-05T01:44:46;17.80;99.90
3900;DHT22;1965;47.668;9.180;2022-07-05T01:47:11;17.90;99.90
3900;DHT22;1965;47.668;9.180;2022-07-05T01:49:39;17.80;99.90
3900;DHT22;1965;47.668;9.180;2022-07-05T01:52:07;17.80;99.90
3900;DHT22;1965;47.668;9.180;2022-07-05T01:54:33;17.90;99.90
3900;DHT22;1965;47.668;9.180;2022-07-05T01:56:59;18.00;99.90
3900;DHT22;1965;47.668;9.180;2022-07-05T01:59:25;18.10;99.90
3900;DHT22;1965;47.668;9.180;2022-07-05T02:01:51;18.00;99.90
3900;DHT22;1965;47.668;9.180;2022-07-05T02:04:16;18.10;99.90
3900;DHT22;1965;47.668;9.180;2022-07-05T02:06:43;17.90;99.90
3900;DHT22;1965;47.668;9.180;2022-07-05T02:09:10;18.00;99.90
3900;DHT22;1965;47.668;9.180;2022-07-05T02:11:36;17.90;99.90
3900;DHT22;1965;47.668;9.180;2022-07-05T02:14:02;17.80;99.90
3900;DHT22;1965;47.668;9.180;2022-07-05T02:16:27;17.90;99.90
3900;DHT22;1965;47.668;9.180;2022-07-05T02:18:53;18.00;99.90
3900;DHT22;1965;47.668;9.180;2022-07-05T02:21:19;18.20;99.90
3900;DHT22;1965;47.668;9.180;2022-07-05T02:23:45;18.20;99.90
3900;DHT22;1965;47.668;9.180;2022-07-05T02:26:10;18.30;99.90
3900;DHT22;1965;47.668;9.180;2022-07-05T02:28:36;18.20;99.90
3900;DHT22;1965;47.668;9.180;2022-07-05T02:31:02;18.30;99.90
3900;DHT22;1965;47.668;9.180;2022-07-05T02:33:27;18.30;99.90
3900;DHT22;1965;47.668;9.180;2022-07-05T02:35:53;18.20;99.90
3900;DHT22;1965;47.668;9.180;2022-07-05T02:38:18;18.20;99.90
3900;DHT22;1965;47.668;9.180;2022-07-05T02:40:44;18.20;99.90
3900;DHT22;1965;47.668;9.180;2022-07-05T02:43:09;18.40;99.90
3900;DHT22;1965;47.668;9.180;2022-07-05T02:45:35;18.50;99.90
3900;DHT22;1965;47.668;9.180;2022-07-05T02:48:00;18.50;99.90
3900;DHT22;1965;47.668;9.180;2022-07-05T02:50:26;18.50;99.90
3900;DHT22;1965;47.668;9.180;2022-07-05T02:52:51;18.50;99.90
3900;DHT22;1965;47.668;9.180;2022-07-05T02:55:17;18.20;99.90
3900;DHT22;1965;47.668;9.180;2022-07-05T02:57:42;18.20;99.90
3900;DHT22;1965;47.668;9.180;2022-07-05T03:00:08;18.20;99.90
3900;DHT22;1965;47.668;9.180;2022-07-05T03:02:34;18.30;99.90
3900;DHT22;1965;47.668;9.180;2022-07-05T03:04:59;18.40;99.90
3900;DHT22;1965;47.668;9.180;2022-07-05T03:07:25;18.50;99.90
3900;DHT22;1965;47.668;9.180;2022-07-05T03:09:50;18.50;99.90
3900;DHT22;1965;47.668;9.180;2022-07-05T03:12:16;18.50;99.90
3900;DHT22;1965;47.668;9.180;2022-07-05T03:14:41;18.50;99.90
3900;DHT22;1965;47.668;9.180;2022-07-05T03:17:07;18.50;99.90
3900;DHT22;1965;47.668;9.180;2022-07-05T03:19:32;18.50;99.90
3900;DHT22;1965;47.668;9.180;2022-07-05T03:21:58;18.50;99.90
3900;DHT22;1965;47.668;9.180;2022-07-05T03:24:23;18.50;99.90
3900;DHT22;1965;47.668;9.180;2022-07-05T03:26:49;18.40;99.90
3900;DHT22;1965;47.668;9.180;2022-07-05T03:29:14;18.40;99.90
3900;DHT22;1965;47.668;9.180;2022-07-05T03:31:40;18.30;99.90
3900;DHT22;1965;47.668;9.180;2022-07-05T03:34:05;18.10;99.90
3900;DHT22;1965;47.668;9.180;2022-07-05T03:36:31;18.20;99.90
3900;DHT22;1965;47.668;9.180;2022-07-05T03:38:57;18.10;99.90
3900;DHT22;1965;47.668;9.180;2022-07-05T03:41:22;18.10;99.90
3900;DHT22;1965;47.668;9.180;2022-07-05T03:43:48;18.10;99.90
3900;DHT22;1965;47.668;9.180;2022-07-05T03:46:13;18.20;99.90
3900;DHT22;1965;47.668;9.180;2022-07-05T03:48:39;18.20;99.90
3900;DHT22;1965;47.668;9.180;2022-07-05T03:51:04;18.20;99.90
3900;DHT22;1965;47.668;9.180;2022-07-05T03:53:30;18.20;99.90
3900;DHT22;1965;47.668;9.180;2022-07-05T03:55:55;18.30;99.90
3900;DHT22;1965;47.668;9.180;2022-07-05T03:58:21;18.30;99.90
3900;DHT22;1965;47.668;9.180;2022-07-05T04:00:46;18.30;99.90
3900;DHT22;1965;47.668;9.180;2022-07-05T04:03:12;18.20;99.90
3900;DHT22;1965;47.668;9.180;2022-07-05T04:05:37;18.20;99.90
3900;DHT22;1965;47.668;9.180;2022-07-05T04:08:04;18.20;99.90
3900;DHT22;1965;47.668;9.180;2022-07-05T04:10:30;18.20;99.90
3900;DHT22;1965;47.668;9.180;2022-07-05T04:12:55;18.20;99.90
3900;DHT22;1965;47.668;9.180;2022-07-05T04:15:21;18.30;99.90
3900;DHT22;1965;47.668;9.180;2022-07-05T04:20:12;18.20;99.90
3900;DHT22;1965;47.668;9.180;2022-07-05T04:22:37;18.30;99.90
3900;DHT22;1965;47.668;9.180;2022-07-05T04:25:03;18.20;99.90
3900;DHT22;1965;47.668;9.180;2022-07-05T04:27:44;18.20;99.90
3900;DHT22;1965;47.668;9.180;2022-07-05T04:30:10;18.20;99.90
3900;DHT22;1965;47.668;9.180;2022-07-05T04:32:36;18.20;99.90
3900;DHT22;1965;47.668;9.180;2022-07-05T04:35:01;18.20;99.90
3900;DHT22;1965;47.668;9.180;2022-07-05T04:37:27;18.10;99.90
3900;DHT22;1965;47.668;9.180;2022-07-05T04:39:52;18.10;99.90
3900;DHT22;1965;47.668;9.180;2022-07-05T04:42:18;18.10;99.90
3900;DHT22;1965;47.668;9.180;2022-07-05T04:44:43;18.20;99.90
3900;DHT22;1965;47.668;9.180;2022-07-05T04:47:09;18.20;99.90
3900;DHT22;1965;47.668;9.180;2022-07-05T04:49:34;18.10;99.90
3900;DHT22;1965;47.668;9.180;2022-07-05T04:52:00;18.20;99.90
3900;DHT22;1965;47.668;9.180;2022-07-05T04:54:25;18.10;99.90
3900;DHT22;1965;47.668;9.180;2022-07-05T04:56:51;18.20;99.90
3900;DHT22;1965;47.668;9.180;2022-07-05T04:59:17;18.20;99.90
3900;DHT22;1965;47.668;9.180;2022-07-05T05:01:42;18.10;99.90
3900;DHT22;1965;47.668;9.180;2022-07-05T05:04:08;18.20;99.90
3900;DHT22;1965;47.668;9.180;2022-07-05T05:06:33;18.20;99.90
3900;DHT22;1965;47.668;9.180;2022-07-05T05:08:59;18.20;99.90
3900;DHT22;1965;47.668;9.180;2022-07-05T05:11:24;18.20;99.90
3900;DHT22;1965;47.668;9.180;2022-07-05T05:13:50;18.20;99.90
3900;DHT22;1965;47.668;9.180;2022-07-05T05:16:15;18.20;99.90
3900;DHT22;1965;47.668;9.180;2022-07-05T05:18:41;18.20;99.90
3900;DHT22;1965;47.668;9.180;2022-07-05T05:21:06;18.20;99.90
3900;DHT22;1965;47.668;9.180;2022-07-05T05:23:32;18.20;99.90
3900;DHT22;1965;47.668;9.180;2022-07-05T05:25:57;18.20;99.90
3900;DHT22;1965;47.668;9.180;2022-07-05T05:28:23;18.10;99.90
3900;DHT22;1965;47.668;9.180;2022-07-05T05:30:49;18.20;99.90
3900;DHT22;1965;47.668;9.180;2022-07-05T05:33:14;18.30;99.90
3900;DHT22;1965;47.668;9.180;2022-07-05T05:35:40;18.30;99.90
3900;DHT22;1965;47.668;9.180;2022-07-05T05:38:05;18.40;99.90
3900;DHT22;1965;47.668;9.180;2022-07-05T05:40:31;18.50;99.90
3900;DHT22;1965;47.668;9.180;2022-07-05T05:42:58;18.50;99.90
3900;DHT22;1965;47.668;9.180;2022-07-05T05:45:23;18.60;99.90
3900;DHT22;1965;47.668;9.180;2022-07-05T05:47:50;18.70;99.90
3900;DHT22;1965;47.668;9.180;2022-07-05T05:50:19;18.80;99.90
3900;DHT22;1965;47.668;9.180;2022-07-05T05:52:45;18.90;99.90
3900;DHT22;1965;47.668;9.180;2022-07-05T05:55:11;18.80;99.90
3900;DHT22;1965;47.668;9.180;2022-07-05T05:57:36;18.80;99.90
3900;DHT22;1965;47.668;9.180;2022-07-05T06:00:03;18.70;99.90
3900;DHT22;1965;47.668;9.180;2022-07-05T06:02:29;18.70;99.90
3900;DHT22;1965;47.668;9.180;2022-07-05T06:04:54;18.60;99.90
3900;DHT22;1965;47.668;9.180;2022-07-05T06:07:20;18.70;99.90
3900;DHT22;1965;47.668;9.180;2022-07-05T06:09:45;18.80;99.90
3900;DHT22;1965;47.668;9.180;2022-07-05T06:12:11;18.70;99.90
3900;DHT22;1965;47.668;9.180;2022-07-05T06:14:36;18.70;99.90
3900;DHT22;1965;47.668;9.180;2022-07-05T06:17:02;18.80;99.90
3900;DHT22;1965;47.668;9.180;2022-07-05T06:19:27;18.90;99.90
3900;DHT22;1965;47.668;9.180;2022-07-05T06:21:53;18.90;99.90
3900;DHT22;1965;47.668;9.180;2022-07-05T06:24:18;18.80;99.90
3900;DHT22;1965;47.668;9.180;2022-07-05T06:26:44;18.90;99.90
3900;DHT22;1965;47.668;9.180;2022-07-05T06:29:09;19.00;99.90
3900;DHT22;1965;47.668;9.180;2022-07-05T06:31:35;19.00;99.90
3900;DHT22;1965;47.668;9.180;2022-07-05T06:34:00;19.00;99.90
3900;DHT22;1965;47.668;9.180;2022-07-05T06:36:26;19.10;99.90
3900;DHT22;1965;47.668;9.180;2022-07-05T06:38:51;19.20;99.90
3900;DHT22;1965;47.668;9.180;2022-07-05T06:41:17;19.10;99.90
3900;DHT22;1965;47.668;9.180;2022-07-05T06:43:42;19.30;99.90
3900;DHT22;1965;47.668;9.180;2022-07-05T06:46:08;19.40;99.90
3900;DHT22;1965;47.668;9.180;2022-07-05T06:48:33;19.50;99.90
3900;DHT22;1965;47.668;9.180;2022-07-05T06:50:59;19.60;99.90
3900;DHT22;1965;47.668;9.180;2022-07-05T06:53:24;19.60;99.90
3900;DHT22;1965;47.668;9.180;2022-07-05T06:55:50;19.50;99.90
3900;DHT22;1965;47.668;9.180;2022-07-05T06:58:15;19.60;99.90
3900;DHT22;1965;47.668;9.180;2022-07-05T07:00:41;19.70;99.90
3900;DHT22;1965;47.668;9.180;2022-07-05T07:03:07;19.80;99.90
3900;DHT22;1965;47.668;9.180;2022-07-05T07:05:33;19.90;99.90
3900;DHT22;1965;47.668;9.180;2022-07-05T07:07:58;19.90;99.90
3900;DHT22;1965;47.668;9.180;2022-07-05T07:10:42;19.80;99.90
3900;DHT22;1965;47.668;9.180;2022-07-05T07:13:08;20.00;99.90
3900;DHT22;1965;47.668;9.180;2022-07-05T07:15:33;19.60;99.90
3900;DHT22;1965;47.668;9.180;2022-07-05T07:17:59;20.10;99.90
3900;DHT22;1965;47.668;9.180;2022-07-05T07:20:25;20.20;99.90
3900;DHT22;1965;47.668;9.180;2022-07-05T07:22:51;20.50;99.90
3900;DHT22;1965;47.668;9.180;2022-07-05T07:25:16;20.80;99.90
3900;DHT22;1965;47.668;9.180;2022-07-05T07:27:43;20.60;99.90
3900;DHT22;1965;47.668;9.180;2022-07-05T07:30:10;20.60;99.90
3900;DHT22;1965;47.668;9.180;2022-07-05T07:32:36;20.80;99.90
3900;DHT22;1965;47.668;9.180;2022-07-05T07:35:01;20.90;99.90
3900;DHT22;1965;47.668;9.180;2022-07-05T07:37:27;21.00;99.90
3900;DHT22;1965;47.668;9.180;2022-07-05T07:39:52;21.40;99.90
3900;DHT22;1965;47.668;9.180;2022-07-05T07:42:18;21.50;99.90
3900;DHT22;1965;47.668;9.180;2022-07-05T07:44:43;21.70;99.90
3900;DHT22;1965;47.668;9.180;2022-07-05T07:47:09;21.30;99.90
3900;DHT22;1965;47.668;9.180;2022-07-05T07:49:34;21.40;99.90
3900;DHT22;1965;47.668;9.180;2022-07-05T07:52:02;21.60;99.90
3900;DHT22;1965;47.668;9.180;2022-07-05T07:54:27;22.00;99.90
3900;DHT22;1965;47.668;9.180;2022-07-05T07:56:53;22.10;99.90
3900;DHT22;1965;47.668;9.180;2022-07-05T07:59:18;22.30;99.90
3900;DHT22;1965;47.668;9.180;2022-07-05T08:01:44;22.60;99.90
3900;DHT22;1965;47.668;9.180;2022-07-05T08:04:09;23.00;99.90
3900;DHT22;1965;47.668;9.180;2022-07-05T08:06:35;23.40;99.90
3900;DHT22;1965;47.668;9.180;2022-07-05T08:09:00;23.80;99.90
3900;DHT22;1965;47.668;9.180;2022-07-05T08:11:26;24.20;99.90
3900;DHT22;1965;47.668;9.180;2022-07-05T08:13:51;24.40;99.90
3900;DHT22;1965;47.668;9.180;2022-07-05T08:16:17;24.50;99.90
3900;DHT22;1965;47.668;9.180;2022-07-05T08:18:42;25.00;99.90
3900;DHT22;1965;47.668;9.180;2022-07-05T08:21:26;25.40;99.90
3900;DHT22;1965;47.668;9.180;2022-07-05T08:24:06;25.70;99.90
3900;DHT22;1965;47.668;9.180;2022-07-05T08:26:32;25.60;99.90
3900;DHT22;1965;47.668;9.180;2022-07-05T08:28:59;25.70;99.90
3900;DHT22;1965;47.668;9.180;2022-07-05T08:31:25;25.90;99.90
3900;DHT22;1965;47.668;9.180;2022-07-05T08:33:51;26.00;99.90
3900;DHT22;1965;47.668;9.180;2022-07-05T08:36:17;26.10;99.90
3900;DHT22;1965;47.668;9.180;2022-07-05T08:38:42;26.20;99.90
3900;DHT22;1965;47.668;9.180;2022-07-05T08:41:09;26.20;99.90
3900;DHT22;1965;47.668;9.180;2022-07-05T08:43:35;26.10;99.90
3900;DHT22;1965;47.668;9.180;2022-07-05T08:46:02;26.10;99.90
3900;DHT22;1965;47.668;9.180;2022-07-05T08:48:29;25.90;99.90
3900;DHT22;1965;47.668;9.180;2022-07-05T08:50:55;25.90;99.90
3900;DHT22;1965;47.668;9.180;2022-07-05T08:53:21;25.80;99.90
3900;DHT22;1965;47.668;9.180;2022-07-05T08:55:47;26.00;99.90
3900;DHT22;1965;47.668;9.180;2022-07-05T08:58:13;26.10;99.90
3900;DHT22;1965;47.668;9.180;2022-07-05T09:00:38;26.30;99.90
3900;DHT22;1965;47.668;9.180;2022-07-05T09:03:04;26.40;99.90
3900;DHT22;1965;47.668;9.180;2022-07-05T09:05:30;26.50;99.90
3900;DHT22;1965;47.668;9.180;2022-07-05T09:07:59;26.50;99.90
3900;DHT22;1965;47.668;9.180;2022-07-05T09:10:25;26.60;99.90
3900;DHT22;1965;47.668;9.180;2022-07-05T09:12:51;26.70;99.90
3900;DHT22;1965;47.668;9.180;2022-07-05T09:15:16;26.60;99.90
3900;DHT22;1965;47.668;9.180;2022-07-05T09:17:43;26.60;99.90
3900;DHT22;1965;47.668;9.180;2022-07-05T09:25:21;27.00;99.90
3900;DHT22;1965;47.668;9.180;2022-07-05T09:27:52;27.30;99.90
3900;DHT22;1965;47.668;9.180;2022-07-05T09:30:23;27.30;99.90
3900;DHT22;1965;47.668;9.180;2022-07-05T09:33:11;27.30;99.90
3900;DHT22;1965;47.668;9.180;2022-07-05T09:35:36;27.30;99.90
3900;DHT22;1965;47.668;9.180;2022-07-05T09:38:03;27.30;99.90
3900;DHT22;1965;47.668;9.180;2022-07-05T09:40:47;27.50;99.90
3900;DHT22;1965;47.668;9.180;2022-07-05T09:43:14;27.60;99.90
3900;DHT22;1965;47.668;9.180;2022-07-05T09:45:49;27.80;99.90
3900;DHT22;1965;47.668;9.180;2022-07-05T09:48:15;28.00;99.90
3900;DHT22;1965;47.668;9.180;2022-07-05T09:50:40;28.40;99.90
3900;DHT22;1965;47.668;9.180;2022-07-05T09:53:06;28.50;99.90
3900;DHT22;1965;47.668;9.180;2022-07-05T09:55:31;28.20;99.90
3900;DHT22;1965;47.668;9.180;2022-07-05T09:57:58;28.00;99.90
3900;DHT22;1965;47.668;9.180;2022-07-05T10:00:23;28.00;99.90
3900;DHT22;1965;47.668;9.180;2022-07-05T10:05:16;28.40;99.90
3900;DHT22;1965;47.668;9.180;2022-07-05T10:07:43;28.70;99.90
3900;DHT22;1965;47.668;9.180;2022-07-05T10:10:12;28.80;99.90
3900;DHT22;1965;47.668;9.180;2022-07-05T10:12:38;28.60;99.90
3900;DHT22;1965;47.668;9.180;2022-07-05T10:15:04;28.60;99.90
3900;DHT22;1965;47.668;9.180;2022-07-05T10:17:30;28.90;99.90
3900;DHT22;1965;47.668;9.180;2022-07-05T10:19:59;28.80;99.90
3900;DHT22;1965;47.668;9.180;2022-07-05T10:22:25;29.00;99.90
3900;DHT22;1965;47.668;9.180;2022-07-05T10:24:51;29.20;99.90
3900;DHT22;1965;47.668;9.180;2022-07-05T10:27:18;29.40;99.90
3900;DHT22;1965;47.668;9.180;2022-07-05T10:29:45;29.40;99.90
3900;DHT22;1965;47.668;9.180;2022-07-05T10:32:10;29.10;99.90
3900;DHT22;1965;47.668;9.180;2022-07-05T10:34:36;29.00;99.90
3900;DHT22;1965;47.668;9.180;2022-07-05T10:37:03;28.80;99.90
3900;DHT22;1965;47.668;9.180;2022-07-05T10:39:29;28.60;99.90
3900;DHT22;1965;47.668;9.180;2022-07-05T10:41:55;28.30;99.90
3900;DHT22;1965;47.668;9.180;2022-07-05T10:44:31;27.80;99.90
3900;DHT22;1965;47.668;9.180;2022-07-05T10:47:07;27.70;99.90
3900;DHT22;1965;47.668;9.180;2022-07-05T10:49:33;27.80;99.90
3900;DHT22;1965;47.668;9.180;2022-07-05T10:51:59;28.10;99.90
3900;DHT22;1965;47.668;9.180;2022-07-05T10:54:24;28.30;99.90
3900;DHT22;1965;47.668;9.180;2022-07-05T11:00:04;28.80;99.90
3900;DHT22;1965;47.668;9.180;2022-07-05T11:02:22;28.80;99.90
3900;DHT22;1965;47.668;9.180;2022-07-05T11:04:48;28.70;99.90
3900;DHT22;1965;47.668;9.180;2022-07-05T11:07:42;28.50;99.90
3900;DHT22;1965;47.668;9.180;2022-07-05T11:10:05;28.80;99.90
3900;DHT22;1965;47.668;9.180;2022-07-05T11:12:35;29.10;99.90
3900;DHT22;1965;47.668;9.180;2022-07-05T11:15:05;29.40;99.90
3900;DHT22;1965;47.668;9.180;2022-07-05T11:17:32;29.60;99.90
3900;DHT22;1965;47.668;9.180;2022-07-05T11:20:02;29.60;99.90
3900;DHT22;1965;47.668;9.180;2022-07-05T11:22:28;29.40;99.90
3900;DHT22;1965;47.668;9.180;2022-07-05T11:24:53;29.10;99.90
3900;DHT22;1965;47.668;9.180;2022-07-05T11:27:20;29.20;99.90
3900;DHT22;1965;47.668;9.180;2022-07-05T11:29:46;29.30;99.90
3900;DHT22;1965;47.668;9.180;2022-07-05T11:32:13;29.50;99.90
3900;DHT22;1965;47.668;9.180;2022-07-05T11:34:39;29.30;99.90
3900;DHT22;1965;47.668;9.180;2022-07-05T11:39:36;29.50;99.90
3900;DHT22;1965;47.668;9.180;2022-07-05T11:42:02;29.70;99.90
3900;DHT22;1965;47.668;9.180;2022-07-05T11:44:31;29.70;99.90
3900;DHT22;1965;47.668;9.180;2022-07-05T11:46:57;29.90;99.90
3900;DHT22;1965;47.668;9.180;2022-07-05T11:49:23;30.00;99.90
3900;DHT22;1965;47.668;9.180;2022-07-05T11:51:55;30.10;99.90
3900;DHT22;1965;47.668;9.180;2022-07-05T11:54:25;29.60;99.90
3900;DHT22;1965;47.668;9.180;2022-07-05T11:56:50;29.60;99.90
3900;DHT22;1965;47.668;9.180;2022-07-05T11:59:17;29.70;99.90
3900;DHT22;1965;47.668;9.180;2022-07-05T12:01:43;29.60;99.90
3900;DHT22;1965;47.668;9.180;2022-07-05T12:04:09;29.30;99.90
3900;DHT22;1965;47.668;9.180;2022-07-05T12:06:40;29.70;99.90
3900;DHT22;1965;47.668;9.180;2022-07-05T12:09:05;29.60;99.90
3900;DHT22;1965;47.668;9.180;2022-07-05T12:11:31;29.60;99.90
3900;DHT22;1965;47.668;9.180;2022-07-05T12:14:22;30.00;99.90
3900;DHT22;1965;47.668;9.180;2022-07-05T12:16:48;30.10;99.90
3900;DHT22;1965;47.668;9.180;2022-07-05T12:19:23;30.60;99.90
3900;DHT22;1965;47.668;9.180;2022-07-05T12:21:52;30.90;99.90
3900;DHT22;1965;47.668;9.180;2022-07-05T12:24:18;31.30;99.90
3900;DHT22;1965;47.668;9.180;2022-07-05T12:26:44;31.50;99.90
3900;DHT22;1965;47.668;9.180;2022-07-05T12:29:09;31.80;99.90
3900;DHT22;1965;47.668;9.180;2022-07-05T12:31:35;32.30;99.90
3900;DHT22;1965;47.668;9.180;2022-07-05T12:34:15;32.40;99.90
3900;DHT22;1965;47.668;9.180;2022-07-05T12:36:43;32.30;99.90
3900;DHT22;1965;47.668;9.180;2022-07-05T12:39:09;32.60;99.90
3900;DHT22;1965;47.668;9.180;2022-07-05T12:41:41;32.40;99.90
3900;DHT22;1965;47.668;9.180;2022-07-05T12:44:07;32.50;99.90
3900;DHT22;1965;47.668;9.180;2022-07-05T12:46:36;32.50;99.90
3900;DHT22;1965;47.668;9.180;2022-07-05T12:49:04;32.50;99.90
3900;DHT22;1965;47.668;9.180;2022-07-05T12:51:31;32.70;99.90
3900;DHT22;1965;47.668;9.180;2022-07-05T12:53:56;32.70;99.90
3900;DHT22;1965;47.668;9.180;2022-07-05T12:56:40;32.60;99.90
3900;DHT22;1965;47.668;9.180;2022-07-05T12:59:30;31.90;99.90
3900;DHT22;1965;47.668;9.180;2022-07-05T13:01:55;31.80;99.90
3900;DHT22;1965;47.668;9.180;2022-07-05T13:04:21;31.90;99.90
3900;DHT22;1965;47.668;9.180;2022-07-05T13:06:50;32.00;99.90
3900;DHT22;1965;47.668;9.180;2022-07-05T13:09:29;32.20;99.90
3900;DHT22;1965;47.668;9.180;2022-07-05T13:12:14;31.70;99.90
3900;DHT22;1965;47.668;9.180;2022-07-05T13:14:40;31.90;99.90
3900;DHT22;1965;47.668;9.180;2022-07-05T13:17:07;32.00;99.90
3900;DHT22;1965;47.668;9.180;2022-07-05T13:19:33;32.40;99.90
3900;DHT22;1965;47.668;9.180;2022-07-05T13:21:58;32.20;99.90
3900;DHT22;1965;47.668;9.180;2022-07-05T13:24:24;32.30;99.90
3900;DHT22;1965;47.668;9.180;2022-07-05T13:26:49;32.70;99.90
3900;DHT22;1965;47.668;9.180;2022-07-05T13:29:15;32.70;99.90
3900;DHT22;1965;47.668;9.180;2022-07-05T13:31:40;32.60;99.90
3900;DHT22;1965;47.668;9.180;2022-07-05T13:34:07;32.90;99.90
3900;DHT22;1965;47.668;9.180;2022-07-05T13:36:32;33.00;99.90
3900;DHT22;1965;47.668;9.180;2022-07-05T13:38:58;33.30;99.90
3900;DHT22;1965;47.668;9.180;2022-07-05T13:41:23;33.60;99.90
3900;DHT22;1965;47.668;9.180;2022-07-05T13:43:49;33.70;99.90
3900;DHT22;1965;47.668;9.180;2022-07-05T13:46:14;34.00;99.90
3900;DHT22;1965;47.668;9.180;2022-07-05T13:48:40;34.10;99.90
3900;DHT22;1965;47.668;9.180;2022-07-05T13:51:05;33.50;99.90
3900;DHT22;1965;47.668;9.180;2022-07-05T13:53:31;33.10;99.90
3900;DHT22;1965;47.668;9.180;2022-07-05T13:55:57;32.90;99.90
3900;DHT22;1965;47.668;9.180;2022-07-05T13:58:22;32.60;99.90
3900;DHT22;1965;47.668;9.180;2022-07-05T14:00:48;32.50;99.90
3900;DHT22;1965;47.668;9.180;2022-07-05T14:03:13;33.10;99.90
3900;DHT22;1965;47.668;9.180;2022-07-05T14:05:41;32.90;99.90
3900;DHT22;1965;47.668;9.180;2022-07-05T14:08:07;33.60;99.90
3900;DHT22;1965;47.668;9.180;2022-07-05T14:10:32;33.70;99.90
3900;DHT22;1965;47.668;9.180;2022-07-05T14:12:58;33.80;99.90
3900;DHT22;1965;47.668;9.180;2022-07-05T14:15:23;34.10;99.90
3900;DHT22;1965;47.668;9.180;2022-07-05T14:17:49;34.20;99.90
3900;DHT22;1965;47.668;9.180;2022-07-05T14:20:14;33.90;99.90
3900;DHT22;1965;47.668;9.180;2022-07-05T14:22:40;33.60;99.90
3900;DHT22;1965;47.668;9.180;2022-07-05T14:25:06;33.00;99.90
3900;DHT22;1965;47.668;9.180;2022-07-05T14:27:31;33.10;99.90
3900;DHT22;1965;47.668;9.180;2022-07-05T14:29:57;33.40;99.90
3900;DHT22;1965;47.668;9.180;2022-07-05T14:32:22;34.00;99.90
3900;DHT22;1965;47.668;9.180;2022-07-05T14:34:48;34.30;99.90
3900;DHT22;1965;47.668;9.180;2022-07-05T14:37:14;34.60;99.90
3900;DHT22;1965;47.668;9.180;2022-07-05T14:39:40;34.80;99.90
3900;DHT22;1965;47.668;9.180;2022-07-05T14:42:05;34.80;99.90
3900;DHT22;1965;47.668;9.180;2022-07-05T14:44:31;34.60;99.90
3900;DHT22;1965;47.668;9.180;2022-07-05T14:46:56;34.00;99.90
3900;DHT22;1965;47.668;9.180;2022-07-05T14:49:22;33.40;99.90
3900;DHT22;1965;47.668;9.180;2022-07-05T14:51:47;33.40;99.90
3900;DHT22;1965;47.668;9.180;2022-07-05T14:54:13;33.60;99.90
3900;DHT22;1965;47.668;9.180;2022-07-05T14:56:38;33.70;99.90
3900;DHT22;1965;47.668;9.180;2022-07-05T14:59:04;33.70;99.90
3900;DHT22;1965;47.668;9.180;2022-07-05T15:01:29;33.50;99.90
3900;DHT22;1965;47.668;9.180;2022-07-05T15:03:55;33.10;99.90
3900;DHT22;1965;47.668;9.180;2022-07-05T15:06:21;33.00;99.90
3900;DHT22;1965;47.668;9.180;2022-07-05T15:08:46;32.80;99.90
3900;DHT22;1965;47.668;9.180;2022-07-05T15:11:12;32.80;99.90
3900;DHT22;1965;47.668;9.180;2022-07-05T15:13:37;33.00;99.90
3900;DHT22;1965;47.668;9.180;2022-07-05T15:16:03;32.90;99.90
3900;DHT22;1965;47.668;9.180;2022-07-05T15:18:31;32.60;99.90
3900;DHT22;1965;47.668;9.180;2022-07-05T15:20:56;32.80;99.90
3900;DHT22;1965;47.668;9.180;2022-07-05T15:23:22;30.40;99.90
3900;DHT22;1965;47.668;9.180;2022-07-05T15:25:55;30.10;99.90
3900;DHT22;1965;47.668;9.180;2022-07-05T15:28:22;30.10;99.90
3900;DHT22;1965;47.668;9.180;2022-07-05T15:30:48;29.70;99.90
3900;DHT22;1965;47.668;9.180;2022-07-05T15:33:14;29.60;99.90
3900;DHT22;1965;47.668;9.180;2022-07-05T15:35:39;29.00;99.90
3900;DHT22;1965;47.668;9.180;2022-07-05T15:38:05;29.10;99.90
3900;DHT22;1965;47.668;9.180;2022-07-05T15:40:30;28.70;99.90
3900;DHT22;1965;47.668;9.180;2022-07-05T15:42:56;28.50;99.90
3900;DHT22;1965;47.668;9.180;2022-07-05T15:45:22;28.90;99.90
3900;DHT22;1965;47.668;9.180;2022-07-05T15:47:47;28.80;99.90
3900;DHT22;1965;47.668;9.180;2022-07-05T15:50:13;28.90;99.90
3900;DHT22;1965;47.668;9.180;2022-07-05T15:52:39;28.80;99.90
3900;DHT22;1965;47.668;9.180;2022-07-05T15:55:05;28.80;99.90
3900;DHT22;1965;47.668;9.180;2022-07-05T15:57:31;28.30;99.90
3900;DHT22;1965;47.668;9.180;2022-07-05T15:59:57;28.30;99.90
3900;DHT22;1965;47.668;9.180;2022-07-05T16:02:23;28.10;99.90
3900;DHT22;1965;47.668;9.180;2022-07-05T16:04:49;27.80;99.90
3900;DHT22;1965;47.668;9.180;2022-07-05T16:07:15;27.90;99.90
3900;DHT22;1965;47.668;9.180;2022-07-05T16:09:40;28.20;99.90
3900;DHT22;1965;47.668;9.180;2022-07-05T16:12:06;28.50;99.90
3900;DHT22;1965;47.668;9.180;2022-07-05T16:14:32;28.40;99.90